createdAt,value
2022-08-30T00:01:07.847Z,6.10
2022-08-30T00:02:22.099Z,5.60
2022-08-30T00:03:36.046Z,5.80
2022-08-30T00:04:47.110Z,5.70
2022-08-30T00:05:56.302Z,6.30
2022-08-30T00:07:05.330Z,5.30
2022-08-30T00:08:13.366Z,6.10
2022-08-30T00:09:20.802Z,5.40
2022-08-30T00:10:28.243Z,5.60
2022-08-30T00:11:36.652Z,5.80
2022-08-30T00:12:45.442Z,5.50
2022-08-30T00:13:55.376Z,5.70
2022-08-30T00:15:03.702Z,5.60
2022-08-30T00:16:12.118Z,5.30
2022-08-30T00:17:20.786Z,5.30
2022-08-30T00:18:28.654Z,6.10
2022-08-30T00:19:36.662Z,5.50
2022-08-30T00:20:43.722Z,5.10
2022-08-30T00:21:50.902Z,5.60
2022-08-30T00:22:58.030Z,5.50
2022-08-30T00:24:06.173Z,5.30
2022-08-30T00:25:13.763Z,5.50
2022-08-30T00:26:20.973Z,5.80
2022-08-30T00:27:28.508Z,5.20
2022-08-30T00:28:36.291Z,5.30
2022-08-30T00:29:43.449Z,4.90
2022-08-30T00:30:50.719Z,4.60
2022-08-30T00:31:58.079Z,5.60
2022-08-30T00:33:05.042Z,5.60
2022-08-30T00:34:12.534Z,5.30
2022-08-30T00:35:21.978Z,4.90
2022-08-30T00:36:30.147Z,5.30
2022-08-30T00:37:39.559Z,5.10
2022-08-30T00:38:48.368Z,5.30
2022-08-30T00:39:57.474Z,5.20
2022-08-30T00:41:05.337Z,5.30
2022-08-30T00:42:14.106Z,5.20
2022-08-30T00:43:27.833Z,4.90
2022-08-30T00:44:35.600Z,5.40
2022-08-30T00:45:43.344Z,5.00
2022-08-30T00:46:51.851Z,5.10
2022-08-30T00:47:59.953Z,5.60
2022-08-30T00:49:09.451Z,5.10
2022-08-30T00:50:17.655Z,5.30
2022-08-30T00:51:25.723Z,4.90
2022-08-30T00:52:33.435Z,5.30
2022-08-30T00:53:43.283Z,4.30
2022-08-30T00:54:50.602Z,4.70
2022-08-30T00:55:57.874Z,5.10
2022-08-30T00:57:05.275Z,5.30
2022-08-30T00:58:14.931Z,4.90
2022-08-30T00:59:23.312Z,5.10
2022-08-30T01:00:30.338Z,4.80
2022-08-30T01:01:38.725Z,4.90
2022-08-30T01:02:45.810Z,5.00
2022-08-30T01:03:55.989Z,5.30
2022-08-30T01:05:04.267Z,5.40
2022-08-30T01:06:11.378Z,5.10
2022-08-30T01:07:18.508Z,4.90
2022-08-30T01:08:25.727Z,4.90
2022-08-30T01:09:33.027Z,4.90
2022-08-30T01:10:40.038Z,4.60
2022-08-30T01:11:47.179Z,4.80
2022-08-30T01:12:54.335Z,4.90
2022-08-30T01:14:01.517Z,4.40
2022-08-30T01:15:09.147Z,4.80
2022-08-30T01:16:16.844Z,5.00
2022-08-30T01:17:23.940Z,4.90
2022-08-30T01:18:31.267Z,4.60
2022-08-30T01:19:43.138Z,4.50
2022-08-30T01:21:08.679Z,4.70
2022-08-30T01:22:44.585Z,4.70
2022-08-30T01:23:55.459Z,5.00
2022-08-30T01:25:02.740Z,4.50
2022-08-30T01:26:10.062Z,4.90
2022-08-30T01:27:20.267Z,4.80
2022-08-30T01:28:27.979Z,4.40
2022-08-30T01:29:35.418Z,4.80
2022-08-30T01:30:44.327Z,5.20
2022-08-30T01:31:51.752Z,4.70
2022-08-30T01:33:05.212Z,4.70
2022-08-30T01:34:12.229Z,4.80
2022-08-30T01:35:20.122Z,4.80
2022-08-30T01:36:27.395Z,4.70
2022-08-30T01:37:34.830Z,4.40
2022-08-30T01:39:00.063Z,4.80
2022-08-30T01:40:08.936Z,4.00
2022-08-30T01:41:21.252Z,4.90
2022-08-30T01:42:30.210Z,4.50
2022-08-30T01:43:38.360Z,4.00
2022-08-30T01:44:46.081Z,4.50
2022-08-30T01:45:53.148Z,4.70
2022-08-30T01:47:00.563Z,3.70
2022-08-30T01:48:07.605Z,4.80
2022-08-30T01:49:16.490Z,4.70
2022-08-30T01:50:23.745Z,4.40
2022-08-30T01:51:32.496Z,4.70
2022-08-30T01:52:40.805Z,4.40
2022-08-30T01:53:49.282Z,4.10
2022-08-30T01:54:56.797Z,4.50
2022-08-30T01:56:04.778Z,4.40
2022-08-30T01:57:13.405Z,4.20
2022-08-30T01:58:20.178Z,4.60
2022-08-30T01:59:27.446Z,4.50
2022-08-30T02:00:34.645Z,4.40
2022-08-30T02:01:44.585Z,4.10
2022-08-30T02:02:53.704Z,4.50
2022-08-30T02:04:01.830Z,4.20
2022-08-30T02:05:09.948Z,4.50
2022-08-30T02:06:21.120Z,4.10
2022-08-30T02:07:31.451Z,3.80
2022-08-30T02:08:42.128Z,4.20
2022-08-30T02:09:51.917Z,4.50
2022-08-30T02:11:01.441Z,4.10
2022-08-30T02:12:09.814Z,4.00
2022-08-30T02:13:17.669Z,4.20
2022-08-30T02:14:24.713Z,4.30
2022-08-30T02:15:33.013Z,4.50
2022-08-30T02:16:49.881Z,4.50
2022-08-30T02:17:57.442Z,4.00
2022-08-30T02:19:08.804Z,4.40
2022-08-30T02:20:15.854Z,4.70
2022-08-30T02:21:22.961Z,4.50
2022-08-30T02:22:29.981Z,4.30
2022-08-30T02:23:37.865Z,4.30
2022-08-30T02:24:44.734Z,4.30
2022-08-30T02:25:52.093Z,4.10
2022-08-30T02:26:59.504Z,4.00
2022-08-30T02:28:06.964Z,4.80
2022-08-30T02:29:16.084Z,4.60
2022-08-30T02:30:23.258Z,4.20
2022-08-30T02:31:30.883Z,4.40
2022-08-30T02:32:37.804Z,4.70
2022-08-30T02:33:45.136Z,4.30
2022-08-30T02:34:52.795Z,4.50
2022-08-30T02:36:00.588Z,4.40
2022-08-30T02:37:08.027Z,4.90
2022-08-30T02:38:15.578Z,4.80
2022-08-30T02:39:27.996Z,4.90
2022-08-30T02:40:36.766Z,4.60
2022-08-30T02:41:48.153Z,4.50
2022-08-30T02:42:57.580Z,5.00
2022-08-30T02:44:07.050Z,4.40
2022-08-30T02:45:14.810Z,4.20
2022-08-30T02:46:22.423Z,4.70
2022-08-30T02:47:29.932Z,4.80
2022-08-30T02:48:37.772Z,4.40
2022-08-30T02:49:45.063Z,5.40
2022-08-30T02:50:53.351Z,4.70
2022-08-30T02:52:00.735Z,4.60
2022-08-30T02:53:08.217Z,4.20
2022-08-30T02:54:21.457Z,4.30
2022-08-30T02:55:29.309Z,4.70
2022-08-30T02:56:38.101Z,4.50
2022-08-30T02:57:46.646Z,4.80
2022-08-30T02:58:55.725Z,4.80
2022-08-30T03:00:03.907Z,4.50
2022-08-30T03:01:13.734Z,4.20
2022-08-30T03:02:21.295Z,4.40
2022-08-30T03:03:29.052Z,4.40
2022-08-30T03:04:37.708Z,4.20
2022-08-30T03:05:46.442Z,4.50
2022-08-30T03:06:55.728Z,4.50
2022-08-30T03:08:03.900Z,4.50
2022-08-30T03:09:11.215Z,3.90
2022-08-30T03:10:18.579Z,4.80
2022-08-30T03:11:25.885Z,4.80
2022-08-30T03:12:37.119Z,4.40
2022-08-30T03:13:45.917Z,4.50
2022-08-30T03:14:54.836Z,4.40
2022-08-30T03:16:02.724Z,4.30
2022-08-30T03:17:15.798Z,4.70
2022-08-30T03:18:23.768Z,4.20
2022-08-30T03:19:37.373Z,5.10
2022-08-30T03:20:54.194Z,4.60
2022-08-30T03:22:04.509Z,4.00
2022-08-30T03:23:12.459Z,4.70
2022-08-30T03:24:29.182Z,4.50
2022-08-30T03:25:38.391Z,4.90
2022-08-30T03:26:47.523Z,4.20
2022-08-30T03:27:55.977Z,4.20
2022-08-30T03:29:04.679Z,4.70
2022-08-30T03:30:13.756Z,4.40
2022-08-30T03:31:21.195Z,4.30
2022-08-30T03:32:29.790Z,4.30
2022-08-30T03:33:38.400Z,4.50
2022-08-30T03:34:47.016Z,4.20
2022-08-30T03:35:56.587Z,4.40
2022-08-30T03:37:04.665Z,4.40
2022-08-30T03:38:12.723Z,4.00
2022-08-30T03:39:20.018Z,4.10
2022-08-30T03:40:27.496Z,4.50
2022-08-30T03:41:35.349Z,4.20
2022-08-30T03:42:43.755Z,4.70
2022-08-30T03:43:52.625Z,4.30
2022-08-30T03:45:09.765Z,4.80
2022-08-30T03:46:17.363Z,4.20
2022-08-30T03:47:30.762Z,4.20
2022-08-30T03:48:37.889Z,4.60
2022-08-30T03:49:45.162Z,4.60
2022-08-30T03:50:52.371Z,4.30
2022-08-30T03:51:59.533Z,4.10
2022-08-30T03:53:06.611Z,4.20
2022-08-30T03:54:13.803Z,4.50
2022-08-30T03:55:20.844Z,4.70
2022-08-30T03:56:28.153Z,4.10
2022-08-30T03:57:36.570Z,4.80
2022-08-30T03:58:43.951Z,3.90
2022-08-30T03:59:51.193Z,4.20
2022-08-30T04:00:58.688Z,4.20
2022-08-30T04:02:06.575Z,4.30
2022-08-30T04:03:13.623Z,4.40
2022-08-30T04:04:21.183Z,4.70
2022-08-30T04:05:28.710Z,4.50
2022-08-30T04:06:36.693Z,4.50
2022-08-30T04:07:44.051Z,4.60
2022-08-30T04:08:52.789Z,4.30
2022-08-30T04:10:00.943Z,3.90
2022-08-30T04:11:08.675Z,4.00
2022-08-30T04:12:18.388Z,4.20
2022-08-30T04:13:31.302Z,4.40
2022-08-30T04:14:39.781Z,4.70
2022-08-30T04:15:48.190Z,4.40
2022-08-30T04:16:57.064Z,4.40
2022-08-30T04:18:04.995Z,4.10
2022-08-30T04:19:12.753Z,4.30
2022-08-30T04:20:19.964Z,4.70
2022-08-30T04:21:28.133Z,4.60
2022-08-30T04:22:37.003Z,4.40
2022-08-30T04:23:46.156Z,4.50
2022-08-30T04:24:54.502Z,4.90
2022-08-30T04:26:03.003Z,4.10
2022-08-30T04:27:11.156Z,4.20
2022-08-30T04:28:18.484Z,4.40
2022-08-30T04:29:26.853Z,4.60
2022-08-30T04:30:35.201Z,4.30
2022-08-30T04:31:43.795Z,4.30
2022-08-30T04:32:55.529Z,4.10
2022-08-30T04:34:06.261Z,3.90
2022-08-30T04:35:14.322Z,4.20
2022-08-30T04:36:21.635Z,4.20
2022-08-30T04:37:29.019Z,4.50
2022-08-30T04:38:36.874Z,4.50
2022-08-30T04:39:44.661Z,4.60
2022-08-30T04:40:53.948Z,4.30
2022-08-30T04:42:01.291Z,4.50
2022-08-30T04:43:08.142Z,4.20
2022-08-30T04:44:19.500Z,4.60
2022-08-30T04:45:28.039Z,4.30
2022-08-30T04:46:37.697Z,4.40
2022-08-30T04:47:54.096Z,4.20
2022-08-30T04:49:06.176Z,4.10
2022-08-30T04:50:15.867Z,4.60
2022-08-30T04:51:23.690Z,4.40
2022-08-30T04:52:31.872Z,4.30
2022-08-30T04:53:40.729Z,4.40
2022-08-30T04:54:49.380Z,4.50
2022-08-30T04:55:58.909Z,4.50
2022-08-30T04:57:08.419Z,4.30
2022-08-30T04:58:16.930Z,4.70
2022-08-30T04:59:25.385Z,4.70
2022-08-30T05:00:34.172Z,4.70
2022-08-30T05:01:45.551Z,4.70
2022-08-30T05:02:54.422Z,4.70
2022-08-30T05:04:02.010Z,4.80
2022-08-30T05:05:29.355Z,4.50
2022-08-30T05:06:41.376Z,4.30
2022-08-30T05:07:49.934Z,4.20
2022-08-30T05:08:58.614Z,4.80
2022-08-30T05:10:10.964Z,4.40
2022-08-30T05:11:20.263Z,4.00
2022-08-30T05:12:27.853Z,4.50
2022-08-30T05:13:36.948Z,4.50
2022-08-30T05:14:44.798Z,4.20
2022-08-30T05:15:54.790Z,4.30
2022-08-30T05:17:03.637Z,4.80
2022-08-30T05:18:14.129Z,4.50
2022-08-30T05:19:21.985Z,4.40
2022-08-30T05:20:30.162Z,4.80
2022-08-30T05:21:38.801Z,4.70
2022-08-30T05:22:54.115Z,4.80
2022-08-30T05:24:05.941Z,4.40
2022-08-30T05:25:14.662Z,4.70
2022-08-30T05:26:26.123Z,5.20
2022-08-30T05:27:37.719Z,5.20
2022-08-30T05:28:48.985Z,4.30
2022-08-30T05:29:58.319Z,4.30
2022-08-30T05:31:10.627Z,4.30
2022-08-30T05:32:21.400Z,4.40
2022-08-30T05:33:31.253Z,4.40
2022-08-30T05:34:46.151Z,4.50
2022-08-30T05:35:53.801Z,4.40
2022-08-30T05:37:01.242Z,4.50
2022-08-30T05:38:09.068Z,4.90
2022-08-30T05:39:17.492Z,5.00
2022-08-30T05:40:29.232Z,4.40
2022-08-30T05:41:36.952Z,4.30
2022-08-30T05:42:44.391Z,4.40
2022-08-30T05:43:53.562Z,4.80
2022-08-30T05:45:00.968Z,4.80
2022-08-30T05:46:09.693Z,4.50
2022-08-30T05:47:16.817Z,5.40
2022-08-30T05:48:23.811Z,4.80
2022-08-30T05:49:30.928Z,4.70
2022-08-30T05:50:39.877Z,4.70
2022-08-30T05:51:47.367Z,4.80
2022-08-30T05:52:55.668Z,4.30
2022-08-30T05:54:04.170Z,5.00
2022-08-30T05:55:12.696Z,4.60
2022-08-30T05:56:24.785Z,4.50
2022-08-30T05:57:36.981Z,4.50
2022-08-30T05:58:44.997Z,4.70
2022-08-30T05:59:53.476Z,4.40
2022-08-30T06:01:01.822Z,5.00
2022-08-30T06:02:10.091Z,4.60
2022-08-30T06:03:20.818Z,4.50
2022-08-30T06:04:28.566Z,4.90
2022-08-30T06:05:37.888Z,4.80
2022-08-30T06:06:46.949Z,4.80
2022-08-30T06:07:56.029Z,4.30
2022-08-30T06:09:05.388Z,4.80
2022-08-30T06:10:15.209Z,4.60
2022-08-30T06:11:25.333Z,4.90
2022-08-30T06:12:34.438Z,4.80
2022-08-30T06:13:43.953Z,5.10
2022-08-30T06:14:53.733Z,4.00
2022-08-30T06:16:02.489Z,4.50
2022-08-30T06:17:09.903Z,4.60
2022-08-30T06:18:17.957Z,4.70
2022-08-30T06:19:29.509Z,4.80
2022-08-30T06:20:43.530Z,5.20
2022-08-30T06:21:52.189Z,4.60
2022-08-30T06:23:03.217Z,4.50
2022-08-30T06:24:12.639Z,4.50
2022-08-30T06:25:20.317Z,4.50
2022-08-30T06:26:28.698Z,4.50
2022-08-30T06:27:35.988Z,4.60
2022-08-30T06:28:43.336Z,4.80
2022-08-30T06:29:53.556Z,5.20
2022-08-30T06:31:00.801Z,4.70
2022-08-30T06:32:08.230Z,4.60
2022-08-30T06:33:15.345Z,4.30
2022-08-30T06:34:23.188Z,4.60
2022-08-30T06:35:32.727Z,4.30
2022-08-30T06:36:43.008Z,4.80
2022-08-30T06:37:50.090Z,4.60
2022-08-30T06:38:58.696Z,5.00
2022-08-30T06:40:06.336Z,4.60
2022-08-30T06:41:17.638Z,4.50
2022-08-30T06:42:25.169Z,5.40
2022-08-30T06:43:33.136Z,4.90
2022-08-30T06:44:41.018Z,5.10
2022-08-30T06:45:53.607Z,5.10
2022-08-30T06:47:00.882Z,4.80
2022-08-30T06:48:08.050Z,5.00
2022-08-30T06:49:15.037Z,4.60
2022-08-30T06:50:22.715Z,4.60
2022-08-30T06:51:32.698Z,4.80
2022-08-30T06:52:45.247Z,4.80
2022-08-30T06:53:55.039Z,4.60
2022-08-30T06:55:03.427Z,4.70
2022-08-30T06:56:16.475Z,5.10
2022-08-30T06:57:24.223Z,5.00
2022-08-30T06:58:33.069Z,4.80
2022-08-30T06:59:41.525Z,5.30
2022-08-30T07:00:50.317Z,5.10
2022-08-30T07:01:59.517Z,5.20
2022-08-30T07:03:07.989Z,5.00
2022-08-30T07:04:15.225Z,5.10
2022-08-30T07:05:25.144Z,5.70
2022-08-30T07:06:32.333Z,6.00
2022-08-30T07:07:39.865Z,5.50
2022-08-30T07:08:47.006Z,5.20
2022-08-30T07:09:55.105Z,4.80
2022-08-30T07:11:02.267Z,4.80
2022-08-30T07:12:10.225Z,4.70
2022-08-30T07:13:17.622Z,5.10
2022-08-30T07:14:24.815Z,5.20
2022-08-30T07:15:31.992Z,4.40
2022-08-30T07:16:51.237Z,5.20
2022-08-30T07:18:17.717Z,5.20
2022-08-30T07:19:25.504Z,4.70
2022-08-30T07:20:39.894Z,5.10
2022-08-30T07:21:47.853Z,4.70
2022-08-30T07:22:56.936Z,5.20
2022-08-30T07:24:04.242Z,5.10
2022-08-30T07:25:17.667Z,4.70
2022-08-30T07:26:35.920Z,5.40
2022-08-30T07:27:43.396Z,5.50
2022-08-30T07:28:52.329Z,5.20
2022-08-30T07:30:04.753Z,5.10
2022-08-30T07:31:14.266Z,5.30
2022-08-30T07:32:21.574Z,5.00
2022-08-30T07:33:28.824Z,4.60
2022-08-30T07:34:36.081Z,4.70
2022-08-30T07:35:43.345Z,5.20
2022-08-30T07:36:50.857Z,5.00
2022-08-30T07:37:58.196Z,5.60
2022-08-30T07:39:06.040Z,5.50
2022-08-30T07:40:15.257Z,5.30
2022-08-30T07:41:27.431Z,5.10
2022-08-30T07:42:34.774Z,5.50
2022-08-30T07:43:42.542Z,5.20
2022-08-30T07:44:51.114Z,4.90
2022-08-30T07:46:08.790Z,5.60
2022-08-30T07:47:17.501Z,5.20
2022-08-30T07:48:24.647Z,5.40
2022-08-30T07:49:31.575Z,6.00
2022-08-30T07:50:38.626Z,6.10
2022-08-30T07:51:45.624Z,5.50
2022-08-30T07:52:52.706Z,5.50
2022-08-30T07:53:59.953Z,5.50
2022-08-30T07:55:07.712Z,5.00
2022-08-30T07:56:14.873Z,5.20
2022-08-30T07:57:21.958Z,5.50
2022-08-30T07:58:28.833Z,5.70
2022-08-30T07:59:36.558Z,5.20
2022-08-30T08:00:44.125Z,5.50
2022-08-30T08:01:51.588Z,5.20
2022-08-30T08:03:00.509Z,5.20
2022-08-30T08:04:08.395Z,5.20
2022-08-30T08:05:17.738Z,5.30
2022-08-30T08:06:26.424Z,5.40
2022-08-30T08:07:33.986Z,5.40
2022-08-30T08:08:41.510Z,5.10
2022-08-30T08:09:48.965Z,5.20
2022-08-30T08:10:56.325Z,5.30
2022-08-30T08:12:03.425Z,5.30
2022-08-30T08:13:10.625Z,5.70
2022-08-30T08:14:17.939Z,5.10
2022-08-30T08:15:25.606Z,5.40
2022-08-30T08:16:34.089Z,5.90
2022-08-30T08:17:41.446Z,5.00
2022-08-30T08:18:48.225Z,5.10
2022-08-30T08:19:55.785Z,5.40
2022-08-30T08:21:02.906Z,4.90
2022-08-30T08:22:20.507Z,5.20
2022-08-30T08:23:28.713Z,5.10
2022-08-30T08:24:35.974Z,5.20
2022-08-30T08:25:43.806Z,5.20
2022-08-30T08:26:52.655Z,4.90
2022-08-30T08:28:00.533Z,5.10
2022-08-30T08:29:09.294Z,5.80
2022-08-30T08:30:17.605Z,5.20
2022-08-30T08:31:33.046Z,5.20
2022-08-30T08:32:42.468Z,5.10
2022-08-30T08:33:50.985Z,5.10
2022-08-30T08:34:59.407Z,4.80
2022-08-30T08:36:09.352Z,5.30
2022-08-30T08:37:20.793Z,5.20
2022-08-30T08:38:28.366Z,4.90
2022-08-30T08:39:37.165Z,5.30
2022-08-30T08:41:07.718Z,5.10
2022-08-30T08:42:34.136Z,5.60
2022-08-30T08:43:42.188Z,5.10
2022-08-30T08:44:54.649Z,5.10
2022-08-30T08:46:14.308Z,5.00
2022-08-30T08:47:32.357Z,4.80
2022-08-30T08:49:00.090Z,5.40
2022-08-30T08:50:13.301Z,5.10
2022-08-30T08:51:45.345Z,5.40
2022-08-30T08:53:45.224Z,5.40
2022-08-30T08:55:02.267Z,5.00
2022-08-30T08:56:17.312Z,5.20
2022-08-30T08:57:24.867Z,5.10
2022-08-30T08:58:42.125Z,5.30
2022-08-30T08:59:50.007Z,5.60
2022-08-30T09:01:01.111Z,5.10
2022-08-30T09:02:25.368Z,5.50
2022-08-30T09:03:32.786Z,5.80
2022-08-30T09:04:40.734Z,5.70
2022-08-30T09:05:49.794Z,4.50
2022-08-30T09:06:59.817Z,5.60
2022-08-30T09:08:10.612Z,5.60
2022-08-30T09:09:20.337Z,5.40
2022-08-30T09:10:47.121Z,5.20
2022-08-30T09:11:55.275Z,5.50
2022-08-30T09:13:03.007Z,5.00
2022-08-30T09:14:16.797Z,5.70
2022-08-30T09:15:26.391Z,6.10
2022-08-30T09:16:51.586Z,5.90
2022-08-30T09:18:03.536Z,5.40
2022-08-30T09:19:11.124Z,5.80
2022-08-30T09:20:26.726Z,5.70
2022-08-30T09:21:33.884Z,5.60
2022-08-30T09:22:43.807Z,5.20
2022-08-30T09:24:06.055Z,5.00
2022-08-30T09:25:16.528Z,5.60
2022-08-30T09:26:43.667Z,5.80
2022-08-30T09:27:53.556Z,5.00
2022-08-30T09:29:02.258Z,5.30
2022-08-30T09:30:19.895Z,5.50
2022-08-30T09:31:31.729Z,6.10
2022-08-30T09:32:43.646Z,5.30
2022-08-30T09:34:10.470Z,5.50
2022-08-30T09:35:21.779Z,6.20
2022-08-30T09:36:29.816Z,6.30
2022-08-30T09:38:10.432Z,5.60
2022-08-30T09:39:28.260Z,5.30
2022-08-30T09:40:51.066Z,5.00
2022-08-30T09:42:12.831Z,4.80
2022-08-30T09:43:19.987Z,5.50
2022-08-30T09:44:32.036Z,6.20
2022-08-30T09:45:41.299Z,5.50
2022-08-30T09:46:54.286Z,5.90
2022-08-30T09:48:03.277Z,5.80
2022-08-30T09:49:31.553Z,6.30
2022-08-30T09:50:39.077Z,6.20
2022-08-30T09:51:54.616Z,6.10
2022-08-30T09:53:11.305Z,5.90
2022-08-30T09:54:31.136Z,5.90
2022-08-30T09:55:58.157Z,6.20
2022-08-30T09:57:39.699Z,5.90
2022-08-30T09:59:18.366Z,6.00
2022-08-30T10:00:32.637Z,5.80
2022-08-30T10:01:42.132Z,5.50
2022-08-30T10:03:30.049Z,6.50
2022-08-30T10:04:59.358Z,6.10
2022-08-30T10:06:09.045Z,7.00
2022-08-30T10:07:21.173Z,6.40
2022-08-30T10:08:54.043Z,6.00
2022-08-30T10:10:19.575Z,6.50
2022-08-30T10:12:06.287Z,6.50
2022-08-30T10:13:33.771Z,5.90
2022-08-30T10:14:50.905Z,6.40
2022-08-30T10:16:20.696Z,5.90
2022-08-30T10:17:50.206Z,7.10
2022-08-30T10:19:10.336Z,5.90
2022-08-30T10:20:31.158Z,5.50
2022-08-30T10:21:44.111Z,5.40
2022-08-30T10:23:11.793Z,5.80
2022-08-30T10:24:21.878Z,6.20
2022-08-30T10:25:32.239Z,6.20
2022-08-30T10:27:05.297Z,5.80
2022-08-30T10:28:16.080Z,6.20
2022-08-30T10:29:46.521Z,5.90
2022-08-30T10:31:03.831Z,5.80
2022-08-30T10:32:20.524Z,5.80
2022-08-30T10:33:31.783Z,5.60
2022-08-30T10:34:43.742Z,6.70
2022-08-30T10:35:54.211Z,6.40
2022-08-30T10:37:06.694Z,6.50
2022-08-30T10:38:27.391Z,5.80
2022-08-30T10:39:39.500Z,5.50
2022-08-30T10:41:08.361Z,5.90
2022-08-30T10:42:28.291Z,7.40
2022-08-30T10:43:56.653Z,6.10
2022-08-30T10:45:14.083Z,5.70
2022-08-30T10:46:39.847Z,6.10
2022-08-30T10:48:07.641Z,5.80
2022-08-30T10:49:27.460Z,5.80
2022-08-30T10:50:41.285Z,5.60
2022-08-30T10:52:10.020Z,6.40
2022-08-30T10:53:23.679Z,5.50
2022-08-30T10:54:37.077Z,5.90
2022-08-30T10:56:03.990Z,5.90
2022-08-30T10:57:11.430Z,6.10
2022-08-30T10:58:19.121Z,6.10
2022-08-30T10:59:26.160Z,6.00
2022-08-30T11:01:08.852Z,6.70
2022-08-30T11:02:34.520Z,6.00
2022-08-30T11:04:04.621Z,6.40
2022-08-30T11:05:48.461Z,6.30
2022-08-30T11:07:09.277Z,5.80
2022-08-30T11:08:39.129Z,6.10
2022-08-30T11:10:08.966Z,7.10
2022-08-30T11:11:53.851Z,5.80
2022-08-30T11:13:06.234Z,6.70
2022-08-30T11:14:15.866Z,6.70
2022-08-30T11:15:25.540Z,6.30
2022-08-30T11:16:43.722Z,6.40
2022-08-30T11:18:11.730Z,6.90
2022-08-30T11:19:39.740Z,6.60
2022-08-30T11:20:52.660Z,6.30
2022-08-30T11:22:18.328Z,6.80
2022-08-30T11:23:36.242Z,6.60
2022-08-30T11:25:09.707Z,6.60
2022-08-30T11:26:20.402Z,6.50
2022-08-30T11:27:48.329Z,7.10
2022-08-30T11:29:02.408Z,7.30
2022-08-30T11:30:28.165Z,7.00
2022-08-30T11:31:40.730Z,7.10
2022-08-30T11:33:09.883Z,7.50
2022-08-30T11:34:17.031Z,7.00
2022-08-30T11:35:48.463Z,6.60
2022-08-30T11:36:56.480Z,7.70
2022-08-30T11:38:03.600Z,6.70
2022-08-30T11:39:12.341Z,7.10
2022-08-30T11:40:24.031Z,7.40
2022-08-30T11:41:38.278Z,6.70
2022-08-30T11:42:50.192Z,6.60
2022-08-30T11:43:58.591Z,6.10
2022-08-30T11:45:25.445Z,6.40
2022-08-30T11:46:33.860Z,6.40
2022-08-30T11:47:45.201Z,7.00
2022-08-30T11:49:14.211Z,7.20
2022-08-30T11:50:32.009Z,7.20
2022-08-30T11:52:27.632Z,7.10
2022-08-30T11:53:39.800Z,7.20
2022-08-30T11:55:20.911Z,7.80
2022-08-30T11:56:30.400Z,9.10
2022-08-30T11:57:58.951Z,7.10
2022-08-30T11:59:06.732Z,6.70
2022-08-30T12:00:36.361Z,6.90
2022-08-30T12:01:51.296Z,6.70
2022-08-30T12:03:04.188Z,7.00
2022-08-30T12:04:18.698Z,6.80
2022-08-30T12:05:44.071Z,7.10
2022-08-30T12:06:52.441Z,7.30
2022-08-30T12:08:02.952Z,7.00
2022-08-30T12:09:12.981Z,7.00
2022-08-30T12:10:28.123Z,7.10
2022-08-30T12:11:35.492Z,6.90
2022-08-30T12:12:49.371Z,6.10
2022-08-30T12:13:59.777Z,6.50
2022-08-30T12:15:07.812Z,6.70
2022-08-30T12:16:22.139Z,6.00
2022-08-30T12:18:15.279Z,6.20
2022-08-30T12:19:23.056Z,5.80
2022-08-30T12:20:47.357Z,6.60
2022-08-30T12:21:58.258Z,6.70
2022-08-30T12:23:31.337Z,7.30
2022-08-30T12:24:41.485Z,7.00
2022-08-30T12:25:48.566Z,6.70
2022-08-30T12:26:55.736Z,7.30
2022-08-30T12:28:31.644Z,7.10
2022-08-30T12:29:39.455Z,6.30
2022-08-30T12:30:48.577Z,6.60
2022-08-30T12:31:59.330Z,7.30
2022-08-30T12:33:11.613Z,6.40
2022-08-30T12:34:30.938Z,6.10
2022-08-30T12:35:38.844Z,6.30
2022-08-30T12:37:10.324Z,7.10
2022-08-30T12:38:28.041Z,6.60
2022-08-30T12:39:38.486Z,7.40
2022-08-30T12:40:54.923Z,7.10
2022-08-30T12:42:17.953Z,6.90
2022-08-30T12:43:28.557Z,6.60
2022-08-30T12:44:50.157Z,7.50
2022-08-30T12:46:07.200Z,6.20
2022-08-30T12:47:15.945Z,6.30
2022-08-30T12:48:24.242Z,6.90
2022-08-30T12:49:36.508Z,6.10
2022-08-30T12:50:54.327Z,7.10
2022-08-30T12:52:24.215Z,6.80
2022-08-30T12:53:33.349Z,6.60
2022-08-30T12:54:41.412Z,6.60
2022-08-30T12:56:01.348Z,6.70
2022-08-30T12:57:25.383Z,7.00
2022-08-30T12:58:47.535Z,6.90
2022-08-30T13:00:02.189Z,6.90
2022-08-30T13:01:31.791Z,7.20
2022-08-30T13:02:54.253Z,6.90
2022-08-30T13:04:05.676Z,7.10
2022-08-30T13:05:47.973Z,7.00
2022-08-30T13:06:59.075Z,7.00
2022-08-30T13:08:23.165Z,6.70
2022-08-30T13:09:38.478Z,7.50
2022-08-30T13:11:05.779Z,6.30
2022-08-30T13:12:27.948Z,6.90
2022-08-30T13:13:44.261Z,7.10
2022-08-30T13:14:55.285Z,6.90
2022-08-30T13:16:29.260Z,7.90
2022-08-30T13:17:38.166Z,7.20
2022-08-30T13:19:10.405Z,6.90
2022-08-30T13:20:18.805Z,6.60
2022-08-30T13:21:34.773Z,7.00
2022-08-30T13:22:44.669Z,6.10
2022-08-30T13:24:02.485Z,6.20
2022-08-30T13:25:12.477Z,6.10
2022-08-30T13:26:24.227Z,7.40
2022-08-30T13:27:36.991Z,7.50
2022-08-30T13:28:50.456Z,7.60
2022-08-30T13:30:00.681Z,7.50
2022-08-30T13:31:10.029Z,7.00
2022-08-30T13:32:18.307Z,7.00
2022-08-30T13:33:27.469Z,7.80
2022-08-30T13:34:37.308Z,7.10
2022-08-30T13:35:45.832Z,7.10
2022-08-30T13:36:59.056Z,6.40
2022-08-30T13:38:07.562Z,6.70
2022-08-30T13:39:15.604Z,6.60
2022-08-30T13:40:24.211Z,6.60
2022-08-30T13:41:34.768Z,6.90
2022-08-30T13:42:45.035Z,6.70
2022-08-30T13:44:12.127Z,6.10
2022-08-30T13:46:54.669Z,6.20
2022-08-30T13:48:05.355Z,6.70
2022-08-30T13:49:44.236Z,6.50
2022-08-30T13:50:57.122Z,7.00
2022-08-30T13:52:19.700Z,5.90
2022-08-30T13:54:58.810Z,6.60
2022-08-30T13:56:08.237Z,6.40
2022-08-30T13:58:52.917Z,6.40
2022-08-30T14:00:00.937Z,6.70
2022-08-30T14:01:09.436Z,6.10
2022-08-30T14:02:18.163Z,6.60
2022-08-30T14:03:26.513Z,6.50
2022-08-30T14:04:34.153Z,6.40
2022-08-30T14:05:51.571Z,6.40
2022-08-30T14:07:13.883Z,6.20
2022-08-30T14:08:47.736Z,6.30
2022-08-30T14:10:30.597Z,6.00
2022-08-30T14:11:27.665Z,6.10
2022-08-30T14:14:32.372Z,5.80
2022-08-30T14:15:32.059Z,5.80
2022-08-30T14:16:41.915Z,6.40
2022-08-30T14:17:49.675Z,5.70
2022-08-30T14:18:59.069Z,6.30
2022-08-30T14:20:08.858Z,6.70
2022-08-30T14:21:16.710Z,6.20
2022-08-30T14:22:25.118Z,6.70
2022-08-30T14:23:33.204Z,6.60
2022-08-30T14:24:41.149Z,6.60
2022-08-30T14:25:49.355Z,6.50
2022-08-30T14:26:58.730Z,6.60
2022-08-30T14:28:06.437Z,7.00
2022-08-30T14:29:14.373Z,6.60
2022-08-30T14:30:21.949Z,6.60
2022-08-30T14:31:29.046Z,7.20
2022-08-30T14:32:38.191Z,6.90
2022-08-30T14:33:45.770Z,6.40
2022-08-30T14:34:53.618Z,6.80
2022-08-30T14:36:02.738Z,6.10
2022-08-30T14:37:11.503Z,7.80
2022-08-30T14:38:22.129Z,7.20
2022-08-30T14:39:29.455Z,6.80
2022-08-30T14:40:38.179Z,6.70
2022-08-30T14:41:52.321Z,7.00
2022-08-30T14:43:01.221Z,7.20
2022-08-30T14:44:10.391Z,6.90
2022-08-30T14:45:18.390Z,6.10
2022-08-30T14:46:27.981Z,7.10
2022-08-30T14:47:36.111Z,6.80
2022-08-30T14:48:44.018Z,7.20
2022-08-30T14:49:52.811Z,6.60
2022-08-30T14:51:00.891Z,6.80
2022-08-30T14:52:09.473Z,7.20
2022-08-30T14:53:16.941Z,6.50
2022-08-30T14:54:26.181Z,5.90
2022-08-30T14:55:34.571Z,6.60
2022-08-30T14:56:43.104Z,6.20
2022-08-30T14:57:53.449Z,6.70
2022-08-30T14:59:04.731Z,6.70
2022-08-30T15:00:13.882Z,5.80
2022-08-30T15:01:21.491Z,6.40
2022-08-30T15:02:28.582Z,5.60
2022-08-30T15:03:38.082Z,5.90
2022-08-30T15:04:46.265Z,5.80
2022-08-30T15:05:57.736Z,5.70
2022-08-30T15:07:06.459Z,5.70
2022-08-30T15:08:17.419Z,5.90
2022-08-30T15:09:25.754Z,5.80
2022-08-30T15:10:32.956Z,6.10
2022-08-30T15:11:40.555Z,5.80
2022-08-30T15:12:53.795Z,5.70
2022-08-30T15:14:02.104Z,6.00
2022-08-30T15:15:11.507Z,6.40
2022-08-30T15:16:23.332Z,6.60
2022-08-30T15:17:32.601Z,6.70
2022-08-30T15:18:41.775Z,5.70
2022-08-30T15:19:50.544Z,6.00
2022-08-30T15:20:58.384Z,6.10
2022-08-30T15:22:08.057Z,6.40
2022-08-30T15:23:16.858Z,6.80
2022-08-30T15:24:29.715Z,5.70
2022-08-30T15:25:38.080Z,5.60
2022-08-30T15:26:51.019Z,6.20
2022-08-30T15:27:59.421Z,6.40
2022-08-30T15:29:09.410Z,6.40
2022-08-30T15:30:16.587Z,6.50
2022-08-30T15:31:32.296Z,6.20
2022-08-30T15:32:39.552Z,6.60
2022-08-30T15:33:47.144Z,6.40
2022-08-30T15:34:55.969Z,6.70
2022-08-30T15:36:04.392Z,6.60
2022-08-30T15:37:11.502Z,6.60
2022-08-30T15:38:21.996Z,6.30
2022-08-30T15:39:29.644Z,6.30
2022-08-30T15:40:36.645Z,6.30
2022-08-30T15:41:44.528Z,6.70
2022-08-30T15:42:51.846Z,6.20
2022-08-30T15:43:59.594Z,6.30
2022-08-30T15:45:07.017Z,6.20
2022-08-30T15:46:23.867Z,5.70
2022-08-30T15:47:37.344Z,6.20
2022-08-30T15:48:45.621Z,5.80
2022-08-30T15:50:00.005Z,6.70
2022-08-30T15:51:08.693Z,7.00
2022-08-30T15:52:16.554Z,6.40
2022-08-30T15:53:24.241Z,6.20
2022-08-30T15:54:32.054Z,6.20
2022-08-30T15:55:39.244Z,5.90
2022-08-30T15:56:46.414Z,6.00
2022-08-30T15:57:53.686Z,6.10
2022-08-30T15:59:01.571Z,6.20
2022-08-30T16:00:10.899Z,6.30
2022-08-30T16:01:19.840Z,6.20
2022-08-30T16:02:38.123Z,5.90